Hauptseite
METAR-TAF:

METAR-TAF

Flughäfen :

Madrid, Spanien

Flughafen Madrid-Barajas

Breite: 40-27N, Länge: 003-33W, Höhe: 609 m

Beobachtung

Neuester Wetterbericht von vor 31 Minuten, um 07:00 UTC
Wind 2 kt aus Nord
Temperatur -1°C
Luftfeuchtigkeit 93%
Luftdruck 1018 hPa
Sichtweite 10 km oder mehr
keine Wolken unter 1500 m und keine Kumulonimbus oder Gewitterwolken

METAR: LEMD 220700Z 35002KT CAVOK M01/M02 Q1018 NOSIG

Zeit: 08:31 (07:31 UTC)

Prognose

Neuester Wetterbericht von vor 2 Stunden und 31 Minuten, um 05:00 UTC
Gültige Prognose vom 22 um 06 UTC bis 23 um 12 UTC
Wind 5 kt aus unterschiedlichen Richtungen
Sichtweite 10 km oder mehr
keine Wolken unter 1500 m und keine Kumulonimbus oder Gewitterwolken
Wahrscheinlichkeit 40% :
Zeitweise
vom 22 um 12 UTC bis 22 um 16 UTC
Wind 10 kt aus Südwest

TAF: LEMD 220500Z 2206/2312 VRB05KT CAVOK TX17/2215Z TNM02/2207Z PROB40 TEMPO 2212/2216 22010KT

Wetterbeobachtungen und Prognosen von mehr als 4000 Flughäfen (METAR und TAF Bericht).

Die verfügbaren Stationen werden durch gelbe und rote Markierungen auf der Karte dargestellt.

Führen Sie die Maus auf sie, um den Namen der Station zu sehen.

Darauf klicken, um die Beobachtung von Wetterbeobachtungen und Prognosen zu sehen.

Um die Karte zu ändern : klicken Sie auf den grünen Tasten mit einem schwarzen Kreuz Zum Vergrößern, auf den grünen Button mit einem Gedankenstrich zu verkleinern, oder auf die grünen Pfeile für benachbarte Karten.


METAR-TAF: